createdAt,value
2019-03-27T00:03:52.004Z,8.60
2019-03-27T00:07:55.086Z,8.40
2019-03-27T00:11:58.136Z,8.40
2019-03-27T00:16:01.193Z,8.40
2019-03-27T00:20:06.907Z,8.40
2019-03-27T00:24:09.953Z,8.40
2019-03-27T00:28:14.012Z,8.50
2019-03-27T00:32:17.099Z,8.40
2019-03-27T00:36:20.108Z,8.40
2019-03-27T00:40:23.229Z,8.30
2019-03-27T00:44:26.303Z,8.20
2019-03-27T00:48:30.875Z,8.20
2019-03-27T00:52:33.884Z,8.10
2019-03-27T00:56:36.893Z,7.90
2019-03-27T01:00:46.488Z,7.70
2019-03-27T01:04:49.502Z,7.60
2019-03-27T01:08:52.579Z,7.50
2019-03-27T01:12:55.584Z,7.40
2019-03-27T01:16:58.596Z,7.40
2019-03-27T01:21:01.599Z,7.20
2019-03-27T01:25:05.431Z,7.20
2019-03-27T01:29:08.455Z,7.20
2019-03-27T01:33:11.486Z,7.10
2019-03-27T01:37:14.492Z,7.00
2019-03-27T01:41:17.537Z,6.90
2019-03-27T01:45:20.598Z,6.80
2019-03-27T01:49:24.866Z,6.70
2019-03-27T01:53:27.868Z,6.50
2019-03-27T01:57:30.890Z,6.50
2019-03-27T02:01:33.912Z,6.50
2019-03-27T02:05:37.100Z,6.50
2019-03-27T02:09:40.111Z,6.40
2019-03-27T02:13:43.107Z,6.40
2019-03-27T02:17:46.128Z,6.30
2019-03-27T02:21:49.124Z,6.20
2019-03-27T02:25:52.137Z,6.20
2019-03-27T02:29:55.152Z,6.20
2019-03-27T02:33:58.152Z,6.10
2019-03-27T02:38:01.193Z,6.10
2019-03-27T02:42:04.203Z,6.00
2019-03-27T02:46:23.325Z,5.80
2019-03-27T02:50:13.101Z,5.80
2019-03-27T02:54:16.156Z,5.70
2019-03-27T02:58:19.186Z,5.60
2019-03-27T03:02:22.274Z,5.60
2019-03-27T03:06:25.377Z,5.60
2019-03-27T03:10:28.385Z,5.60
2019-03-27T03:14:31.402Z,5.50
2019-03-27T03:18:34.457Z,5.40
2019-03-27T03:22:37.457Z,5.40
2019-03-27T03:26:40.466Z,5.30
2019-03-27T03:30:43.478Z,5.40
2019-03-27T03:34:46.493Z,5.50
2019-03-27T03:38:49.645Z,5.60
2019-03-27T03:42:52.661Z,5.70
2019-03-27T03:47:00.201Z,5.80
2019-03-27T03:51:02.437Z,5.80
2019-03-27T03:55:06.055Z,5.80
2019-03-27T03:59:11.605Z,5.70
2019-03-27T04:03:14.911Z,5.60
2019-03-27T04:07:17.947Z,5.50
2019-03-27T04:11:21.011Z,5.60
2019-03-27T04:15:24.025Z,5.70
2019-03-27T04:19:27.015Z,5.80
2019-03-27T04:23:32.054Z,5.90
2019-03-27T04:27:35.062Z,6.00
2019-03-27T04:31:38.060Z,6.10
2019-03-27T04:35:41.087Z,6.10
2019-03-27T04:39:44.111Z,6.10
2019-03-27T04:43:48.163Z,6.00
2019-03-27T04:47:51.251Z,6.00
2019-03-27T04:51:55.296Z,5.90
2019-03-27T04:55:58.327Z,5.80
2019-03-27T05:00:04.206Z,5.80
2019-03-27T05:04:07.842Z,5.70
2019-03-27T05:08:10.843Z,5.80
2019-03-27T05:12:13.862Z,5.70
2019-03-27T05:16:17.163Z,5.60
2019-03-27T05:20:20.161Z,5.60
2019-03-27T05:24:24.428Z,5.50
2019-03-27T05:28:27.431Z,5.60
2019-03-27T05:32:30.459Z,5.50
2019-03-27T05:36:33.492Z,5.50
2019-03-27T05:40:36.500Z,5.50
2019-03-27T05:44:41.593Z,5.60
2019-03-27T05:48:44.679Z,5.70
2019-03-27T05:52:49.076Z,5.70
2019-03-27T05:56:52.107Z,5.80
2019-03-27T06:00:55.412Z,5.90
2019-03-27T06:04:58.515Z,6.10
2019-03-27T06:09:04.879Z,6.20
2019-03-27T06:13:07.975Z,6.30
2019-03-27T06:17:10.989Z,6.60
2019-03-27T06:21:14.000Z,6.70
2019-03-27T06:25:16.994Z,7.10
2019-03-27T06:29:19.999Z,7.50
2019-03-27T06:33:22.983Z,7.80
2019-03-27T06:37:26.080Z,8.20
2019-03-27T06:41:29.107Z,8.50
2019-03-27T06:45:32.135Z,8.90
2019-03-27T06:49:35.130Z,9.40
2019-03-27T06:53:39.630Z,9.70
2019-03-27T06:57:42.646Z,10.00
2019-03-27T07:01:45.650Z,10.50
2019-03-27T07:05:48.648Z,11.00
2019-03-27T07:09:51.655Z,11.40
2019-03-27T07:13:54.660Z,11.90
2019-03-27T07:17:57.644Z,12.20
2019-03-27T07:22:00.758Z,12.40
2019-03-27T07:26:03.759Z,13.30
2019-03-27T07:30:07.472Z,13.50
2019-03-27T07:34:10.469Z,13.90
2019-03-27T07:38:13.472Z,14.40
2019-03-27T07:42:16.531Z,14.80
2019-03-27T07:46:19.528Z,15.10
2019-03-27T07:50:22.532Z,15.40
2019-03-27T07:54:27.643Z,16.20
2019-03-27T07:58:30.647Z,16.20
2019-03-27T08:02:33.641Z,16.20
2019-03-27T08:06:36.647Z,15.70
2019-03-27T08:10:39.664Z,16.50
2019-03-27T08:14:42.659Z,17.40
2019-03-27T08:18:45.690Z,17.50
2019-03-27T08:22:48.695Z,18.40
2019-03-27T08:26:51.703Z,19.70
2019-03-27T08:30:54.699Z,20.60
2019-03-27T08:34:57.719Z,20.30
2019-03-27T08:39:00.715Z,20.00
2019-03-27T08:43:03.783Z,20.20
2019-03-27T08:47:06.784Z,20.50
2019-03-27T08:51:09.799Z,20.70
2019-03-27T08:55:14.900Z,21.80
2019-03-27T08:59:17.891Z,22.20
2019-03-27T09:03:20.921Z,21.80
2019-03-27T09:07:23.919Z,21.30
2019-03-27T09:11:26.914Z,20.80
2019-03-27T09:15:29.914Z,20.10
2019-03-27T09:19:36.105Z,19.60
2019-03-27T09:23:37.819Z,19.40
2019-03-27T09:27:40.821Z,17.50
2019-03-27T09:31:45.300Z,16.80
2019-03-27T09:35:48.643Z,16.20
2019-03-27T09:39:51.719Z,16.10
2019-03-27T09:43:54.734Z,15.70
2019-03-27T09:47:57.833Z,15.60
2019-03-27T09:52:00.828Z,15.90
2019-03-27T09:56:18.084Z,18.00
2019-03-27T10:00:10.190Z,17.50
2019-03-27T10:04:13.219Z,17.30
2019-03-27T10:08:16.203Z,16.30
2019-03-27T10:12:19.213Z,15.50
2019-03-27T10:16:22.223Z,15.20
2019-03-27T10:20:25.224Z,14.70
2019-03-27T10:24:28.235Z,14.50
2019-03-27T10:28:31.250Z,14.70
2019-03-27T10:32:34.238Z,15.00
2019-03-27T10:36:37.235Z,15.30
2019-03-27T10:40:40.244Z,15.60
2019-03-27T10:44:43.267Z,15.70
2019-03-27T10:48:52.470Z,16.40
2019-03-27T10:52:51.228Z,17.00
2019-03-27T10:56:54.803Z,17.00
2019-03-27T11:00:57.874Z,16.80
2019-03-27T11:05:00.888Z,16.70
2019-03-27T11:09:07.395Z,17.10
2019-03-27T11:13:10.414Z,16.30
2019-03-27T11:17:13.419Z,15.60
2019-03-27T11:21:16.424Z,16.20
2019-03-27T11:25:19.442Z,15.60
2019-03-27T11:29:22.444Z,15.40
2019-03-27T11:33:28.802Z,15.10
2019-03-27T11:37:30.396Z,15.40
2019-03-27T11:41:33.406Z,15.30
2019-03-27T11:45:36.399Z,14.90
2019-03-27T11:49:39.415Z,14.80
2019-03-27T11:53:42.462Z,14.90
2019-03-27T11:57:45.918Z,15.30
2019-03-27T12:01:48.938Z,15.80
2019-03-27T12:05:51.931Z,15.70
2019-03-27T12:09:54.979Z,16.00
2019-03-27T12:13:57.989Z,16.80
2019-03-27T12:18:00.996Z,16.80
2019-03-27T12:22:04.007Z,16.70
2019-03-27T12:26:07.085Z,16.70
2019-03-27T12:30:10.311Z,17.00
2019-03-27T12:34:13.315Z,16.10
2019-03-27T12:38:16.447Z,16.50
2019-03-27T12:42:19.435Z,16.40
2019-03-27T12:46:22.435Z,16.40
2019-03-27T12:50:25.508Z,16.30
2019-03-27T12:54:28.523Z,16.80
2019-03-27T12:58:33.038Z,16.90
2019-03-27T13:02:37.187Z,17.00
2019-03-27T13:06:40.377Z,17.00
2019-03-27T13:10:43.379Z,16.60
2019-03-27T13:14:46.397Z,16.60
2019-03-27T13:18:49.406Z,15.90
2019-03-27T13:22:52.658Z,16.20
2019-03-27T13:26:55.767Z,16.20
2019-03-27T13:30:58.777Z,16.10
2019-03-27T13:35:03.199Z,16.00
2019-03-27T13:39:07.789Z,16.20
2019-03-27T13:43:10.943Z,16.20
2019-03-27T13:47:14.236Z,16.80
2019-03-27T13:51:17.423Z,16.70
2019-03-27T13:55:20.447Z,16.80
2019-03-27T13:59:25.040Z,16.60
2019-03-27T14:03:34.163Z,17.00
2019-03-27T14:07:37.175Z,16.80
2019-03-27T14:11:40.333Z,16.80
2019-03-27T14:15:43.323Z,17.10
2019-03-27T14:19:46.329Z,16.90
2019-03-27T14:23:49.356Z,17.10
2019-03-27T14:28:02.467Z,17.00
2019-03-27T14:32:05.470Z,16.30
2019-03-27T14:36:08.569Z,16.70
2019-03-27T14:40:11.860Z,16.70
2019-03-27T14:44:15.310Z,16.60
2019-03-27T14:48:18.487Z,16.60
2019-03-27T14:52:21.869Z,16.40
2019-03-27T14:56:24.900Z,15.90
2019-03-27T15:00:28.468Z,16.10
2019-03-27T15:04:31.485Z,16.10
2019-03-27T15:08:34.515Z,16.40
2019-03-27T15:12:37.995Z,15.80
2019-03-27T15:16:41.075Z,15.30
2019-03-27T15:20:44.100Z,15.40
2019-03-27T15:24:47.155Z,15.40
2019-03-27T15:28:50.854Z,15.70
2019-03-27T15:32:54.194Z,15.70
2019-03-27T15:36:57.181Z,15.60
2019-03-27T15:41:00.195Z,15.60
2019-03-27T15:45:07.583Z,15.40
2019-03-27T15:49:10.585Z,15.00
2019-03-27T15:53:13.571Z,14.80
2019-03-27T15:57:16.611Z,14.10
2019-03-27T16:01:20.667Z,14.10
2019-03-27T16:05:23.703Z,13.70
2019-03-27T16:09:26.707Z,13.70
2019-03-27T16:13:29.802Z,13.50
2019-03-27T16:17:32.909Z,13.30
2019-03-27T16:21:37.679Z,13.40
2019-03-27T16:25:40.827Z,13.10
2019-03-27T16:29:43.829Z,13.00
2019-03-27T16:33:46.848Z,13.00
2019-03-27T16:37:49.955Z,13.00
2019-03-27T16:41:53.003Z,13.20
2019-03-27T16:45:56.099Z,13.30
2019-03-27T16:49:59.265Z,13.30
2019-03-27T16:54:02.282Z,13.40
2019-03-27T16:58:05.345Z,13.30
2019-03-27T17:02:09.780Z,13.30
2019-03-27T17:06:12.823Z,13.20
2019-03-27T17:10:16.231Z,13.10
2019-03-27T17:14:19.294Z,13.20
2019-03-27T17:18:22.347Z,13.10
2019-03-27T17:22:36.667Z,13.00
2019-03-27T17:26:39.803Z,13.00
2019-03-27T17:30:43.045Z,12.90
2019-03-27T17:34:46.378Z,12.70
2019-03-27T17:38:50.699Z,12.60
2019-03-27T17:42:53.911Z,12.60
2019-03-27T17:46:56.952Z,12.40
2019-03-27T17:51:00.100Z,12.10
2019-03-27T17:55:05.859Z,12.00
2019-03-27T17:59:09.081Z,11.80
2019-03-27T18:03:13.033Z,11.70
2019-03-27T18:07:16.326Z,11.60
2019-03-27T18:11:19.445Z,11.50
2019-03-27T18:15:23.962Z,11.30
2019-03-27T18:19:27.095Z,11.10
2019-03-27T18:23:30.112Z,10.90
2019-03-27T18:27:33.135Z,10.80
2019-03-27T18:31:36.159Z,10.70
2019-03-27T18:35:39.175Z,10.60
2019-03-27T18:39:42.223Z,10.40
2019-03-27T18:43:45.251Z,10.40
2019-03-27T18:47:48.324Z,10.20
2019-03-27T18:51:51.341Z,10.20
2019-03-27T18:55:57.355Z,10.10
2019-03-27T19:00:00.401Z,10.00
2019-03-27T19:04:04.040Z,9.90
2019-03-27T19:08:07.207Z,9.90
2019-03-27T19:12:10.311Z,9.70
2019-03-27T19:16:13.362Z,9.70
2019-03-27T19:20:16.560Z,9.50
2019-03-27T19:24:19.867Z,9.60
2019-03-27T19:28:23.038Z,9.50
2019-03-27T19:32:26.269Z,9.40
2019-03-27T19:36:29.402Z,9.30
2019-03-27T19:40:32.409Z,9.20
2019-03-27T19:44:35.438Z,9.20
2019-03-27T19:48:38.580Z,9.10
2019-03-27T19:52:42.634Z,9.10
2019-03-27T19:56:46.629Z,9.00
2019-03-27T20:00:49.652Z,8.80
2019-03-27T20:04:53.746Z,8.80
2019-03-27T20:08:57.040Z,8.70
2019-03-27T20:13:00.188Z,8.60
2019-03-27T20:17:03.176Z,8.60
2019-03-27T20:21:06.187Z,8.50
2019-03-27T20:25:10.859Z,8.50
2019-03-27T20:29:13.955Z,8.30
2019-03-27T20:33:16.943Z,8.30
2019-03-27T20:37:20.020Z,8.30
2019-03-27T20:41:25.052Z,8.20
2019-03-27T20:45:28.053Z,8.20
2019-03-27T20:49:31.063Z,8.10
2019-03-27T20:53:34.075Z,8.10
2019-03-27T20:57:37.082Z,8.00
2019-03-27T21:01:46.075Z,8.00
2019-03-27T21:05:49.797Z,7.90
2019-03-27T21:09:53.396Z,7.90
2019-03-27T21:13:56.574Z,7.90
2019-03-27T21:17:59.543Z,7.80
2019-03-27T21:22:02.583Z,7.80
2019-03-27T21:26:05.590Z,7.70
2019-03-27T21:30:09.706Z,7.60
2019-03-27T21:34:12.710Z,7.50
2019-03-27T21:38:15.711Z,7.60
2019-03-27T21:42:18.707Z,7.40
2019-03-27T21:46:21.703Z,7.40
2019-03-27T21:50:24.713Z,7.30
2019-03-27T21:54:27.703Z,7.30
2019-03-27T21:58:30.700Z,7.20
2019-03-27T22:02:33.694Z,7.20
2019-03-27T22:06:38.183Z,7.20
2019-03-27T22:10:41.282Z,7.10
2019-03-27T22:14:44.291Z,7.10
2019-03-27T22:18:47.305Z,7.00
2019-03-27T22:22:51.297Z,7.10
2019-03-27T22:26:57.364Z,7.00
2019-03-27T22:31:00.703Z,7.00
2019-03-27T22:35:07.167Z,6.80
2019-03-27T22:39:11.590Z,6.80
2019-03-27T22:43:14.600Z,6.60
2019-03-27T22:47:17.603Z,6.70
2019-03-27T22:51:20.609Z,6.70
2019-03-27T22:55:23.619Z,6.70
2019-03-27T22:59:26.626Z,6.60
2019-03-27T23:03:29.627Z,6.60
2019-03-27T23:07:33.873Z,6.60
2019-03-27T23:11:36.875Z,6.50
2019-03-27T23:15:39.896Z,6.30
2019-03-27T23:19:43.365Z,6.20
2019-03-27T23:23:46.434Z,6.30
2019-03-27T23:27:49.456Z,6.40
2019-03-27T23:31:52.559Z,6.40
2019-03-27T23:35:55.569Z,6.40
2019-03-27T23:39:58.567Z,6.30
2019-03-27T23:44:01.581Z,6.10
2019-03-27T23:48:04.599Z,6.10
2019-03-27T23:52:07.601Z,6.00
2019-03-27T23:56:16.455Z,6.10
